METAR AND TAF INFORMATION
METAR FOR EBBL
ADDS - METARS form results

(1340 UTC 13 July 2020)
Data provider http://aviationweather.gov/metar/data/
 
METAR text: EBBL 131325Z 06003KT 9999 FEW060 SCT220 25/09 Q1021 BLU BLU
Conditions at: EBBL (KLEINE-BROGEL(BA, BE) observed 1325 UTC 13 July 2020
Temperature: 25.0°C (77°F)
Dewpoint: 9.0°C (48°F) [RH = 36%]
Pressure (altimeter): 30.15 inches Hg (1021.0 mb)
Winds: from the ENE (60 degrees) at 3 MPH (3 knots; 1.5 m/s)
Visibility: 6 or more miles (10+ km)
Ceiling: at least 12,000 feet AGL
Clouds: few clouds at 6000 feet AGL
scattered clouds at 22000 feet AGL
Weather: no significant weather observed at this time

METAR text: EBBL 131255Z VRB02KT 9999 FEW060 SCT220 24/10 Q1022 BLU BLU
Conditions at: EBBL (KLEINE-BROGEL(BA, BE) observed 1255 UTC 13 July 2020
Temperature: 24.0°C (75°F)
Dewpoint: 10.0°C (50°F) [RH = 41%]
Pressure (altimeter): 30.18 inches Hg (1022.0 mb)
Winds: variable direction winds at 2 MPH (2 knots; 1.0 m/s)
Visibility: 6 or more miles (10+ km)
Ceiling: at least 12,000 feet AGL
Clouds: few clouds at 6000 feet AGL
scattered clouds at 22000 feet AGL
Weather: no significant weather observed at this time

Forecast for: EBBL (KLEINE-BROGEL(BA, BE)
Text: TAF EBBL 131141Z 1313/1322 VRB03KT 9999 FEW040 SCT240
Forecast period: 1300 to 1500 UTC 13 July 2020
Forecast type: FROM: standard forecast or significant change
Winds: variable direction winds at 3 MPH (3 knots; 1.5 m/s)
Visibility: 6 or more miles 10+ km)
Ceiling: at least 12,000 feet AGL
Clouds: few clouds at 4000 feet AGL
scattered clouds at 24000 feet AGL
Weather: no significant weather forecast for this period
Text: BECMG 1315/1317 33006KT
Forecast period: 1500 to 2200 UTC 13 July 2020
Forecast type: BECOMING: Conditions expected to become as follows by 1700 UTC 13 July 2020
Winds: from the NNW (330 degrees) at 7 MPH (6 knots; 3.1 m/s)
Visibility: 6 or more miles 10+ km)
Ceiling: at least 12,000 feet AGL
Clouds: few clouds at 4000 feet AGL
scattered clouds at 24000 feet AGL
Weather: no significant weather forecast for this period

 AIRPORT MAP

 RUNWAY INFORMATION
Runway 05L Runway length 10158 ft Runway width 148 ft
Runway elevation 193 ft Runway displaced threshold 1085 ft Runway heading 50
Runway 23R Runway length 10158 ft Runway width 148 ft
Runway elevation 169 ft Runway displaced threshold 1128 ft Runway heading 230
Runway 05R Runway length 7874 ft Runway width 75 ft
Runway elevation 0 ft Runway displaced threshold 0 ft Runway heading 50
Runway 23L Runway length 7874 ft Runway width 75 ft
Runway elevation 0 ft Runway displaced threshold 24 ft Runway heading 230

 AIRPORT FREQUENCIES
Type APP Name APP Frequency 122.5 MHZ
Type GND Name TAXI Frequency 122.1 MHZ
Type TWR Name TWR Frequency 122.1 MHZ

 AIRPORT NEAR NAVIGATION AIDS
Type TACAN Name Kleine Brogel Frequency 109600 KHZ
Type NDB Name Kleine Brogel Frequency 431 KHZ